Strona główna
METAR-TAF:

METAR-TAF

Lotnisko :

Port lotniczy Bournemouth

Bournemouth, Anglia

Szerokość geograficzna: 50-47N, Długość geograficzna: 001-50W, wysokość: 11 m

Aktualna obserwacja pogody

Raport powstał 29 minut temu, godzina 08:20 UTC
Wiatr 2 kt od północny zachód
Temperatura -4°C
Wilgotność 93%
Ciśnienie 1044 hPa
Widzialność: 0550 m
Płytka mgła, Mgła w płatach

METAR: EGHH 190820Z 31002KT 9999 0550S MIFG BCFG NSC M04/M05 Q1044

czas: 08:49 (08:49 UTC)

Prognoza

Raport powstał 47 minut temu, godzina 08:02 UTC
Prognoza ważna od 19 godzina 09 UTC do 19 godzina 18 UTC
Wiatr 2 kt z kierunków zmiennych
Widzialność: 9000 m
Płytka mgła
Stopniowe zmiany
od 19 godzina 09 UTC do 19 godzina 11 UTC
Widzialność 10 km lub więcej
Brak chmur poniżej 1500 m i brak chmur cumulonimbus

TAF: EGHH 190802Z 1909/1918 VRB02KT 9000 MIFG NSC BECMG 1909/1911 CAVOK

Obserwacja i prognoza pogody dla ponad 4000 lotnisk (raport METAR i TAF).

Dostępne stacje oznaczono żółtymi i czerwonymi punktami na mapie.

Najedź kursorem aby zobaczyć nazwę stacji.

Kliknij aby zobaczyć obserwacje i prognozy pogody.

Aby zmienić mapę: kliknij na zielony przycisk z czarnym krzyżykiem, aby powiększyć; na zielony przycisk z myślnikiem, aby pomniejszyć; na zielone strzałki, aby przejść do map sąsiednich.


METAR-TAF: